Terminal Aerodrome Forecast
Issued by NWS

Home | Current Version | Previous Version | Text Only | Print | Product List | Glossary On
Versions: 1 2 3 4 5 6 7 8 9 10 11 12 13 14 15 16
469
FTUS43 KJKL 091146 CCA
TAFSME
TAF COR
KSME 091146Z 0912/1012 31006KT P6SM -SHSN OVC030
     FM091700 VRB05KT P6SM SCT035=

USA.gov is the U.S. government's official web portal to all federal, state and local government web resources and services.